Time;durP1;ratioP1;P1;durP2;ratioP2;P2;SDS_P1;SDS_P2;PMS_P1;PMS_P2;Temp;Humidity;BMP_temperature;BMP_pressure;BME280_temperature;BME280_humidity;BME280_pressure;Samples;Min_cycle;Max_cycle;Signal;HPM_P1;HPM_P2
2022/06/15 00:01:00;;;;;;;8.10;2.08;;;;;;;9.46;74.56;99852.97;8497455;27;20047;-72
2022/06/15 00:05:01;;;;;;;6.90;1.80;;;;;;;9.41;74.56;99849.50;8519982;27;20084;-72
2022/06/15 00:09:02;;;;;;;3.15;1.80;;;;;;;9.31;74.60;99850.38;8519778;27;20058;-72
2022/06/15 00:13:03;;;;;;;5.82;1.50;;;;;;;9.27;74.81;99849.34;8506081;27;20043;-72
2022/06/15 00:17:04;;;;;;;4.43;1.80;;;;;;;9.26;74.69;99842.34;8484543;27;20047;-72
2022/06/15 00:21:06;;;;;;;6.45;1.60;;;;;;;9.24;74.76;99845.34;8516900;27;20039;-72
2022/06/15 00:25:08;;;;;;;5.15;1.50;;;;;;;9.18;75.05;99842.94;8521461;27;20054;-72
2022/06/15 00:29:10;;;;;;;4.43;1.55;;;;;;;9.12;75.11;99846.75;8518289;27;20051;-72
2022/06/15 00:33:11;;;;;;;7.15;1.75;;;;;;;9.09;75.27;99847.34;8532013;27;20043;-72
2022/06/15 00:37:12;;;;;;;7.18;1.63;;;;;;;9.05;75.13;99840.88;8491316;27;20067;-73
2022/06/15 00:41:16;;;;;;;11.75;2.00;;;;;;;9.01;75.50;99850.63;8483048;27;20176;-72
2022/06/15 00:45:17;;;;;;;5.18;1.52;;;;;;;9.01;75.76;99850.63;8517351;27;20103;-72
2022/06/15 00:49:54;;;;;;;5.28;1.70;;;;;;;9.03;75.72;99853.84;8497197;27;20043;-72
2022/06/15 00:53:56;;;;;;;5.05;1.90;;;;;;;9.00;75.25;99854.38;8516871;27;20042;-71
2022/06/15 00:58:01;;;;;;;3.80;1.80;;;;;;;8.93;75.64;99848.53;8518926;27;20035;-72
2022/06/15 01:02:02;;;;;;;4.88;1.48;;;;;;;8.85;75.98;99847.22;8508273;27;20507;-72
2022/06/15 01:06:37;;;;;;;14.68;2.17;;;;;;;8.80;75.98;99845.38;8469845;27;20051;-72
2022/06/15 01:11:04;;;;;;;6.53;1.85;;;;;;;8.77;76.30;99851.31;8363531;28;20148;-71
2022/06/15 01:15:32;;;;;;;7.20;1.63;;;;;;;8.68;76.45;99847.56;8371838;28;20043;-73
2022/06/15 01:20:02;;;;;;;8.52;1.92;;;;;;;8.64;76.24;99849.22;8388717;28;20272;-72
2022/06/15 01:24:06;;;;;;;9.40;2.00;;;;;;;8.58;76.31;99847.63;8385646;28;20099;-72
2022/06/15 01:28:13;;;;;;;6.28;1.48;;;;;;;8.49;76.73;99854.69;8361831;28;20203;-72
2022/06/15 01:32:38;;;;;;;3.95;1.50;;;;;;;8.46;76.92;99852.53;8350976;28;20049;-72
2022/06/15 01:36:49;;;;;;;4.05;1.80;;;;;;;8.46;77.05;99847.16;8358773;28;20048;-72
2022/06/15 01:40:53;;;;;;;4.93;1.70;;;;;;;8.45;77.00;99848.25;8353939;28;20553;-72
2022/06/15 01:44:57;;;;;;;5.53;1.83;;;;;;;8.40;77.08;99850.97;8371351;28;20413;-72
2022/06/15 01:48:59;;;;;;;8.65;2.13;;;;;;;8.32;77.22;99854.22;8440060;28;20051;-72
2022/06/15 01:53:34;;;;;;;4.88;1.58;;;;;;;8.29;77.28;99844.00;8445330;28;20067;-72
2022/06/15 01:57:37;;;;;;;3.78;1.85;;;;;;;8.29;77.09;99849.38;8361938;28;20041;-72
2022/06/15 02:01:53;;;;;;;3.97;1.75;;;;;;;8.27;77.22;99840.75;8367473;28;20155;-72
2022/06/15 02:06:06;;;;;;;7.13;1.73;;;;;;;8.24;77.02;99841.31;8387354;28;20103;-72
2022/06/15 02:10:24;;;;;;;8.15;1.63;;;;;;;8.23;77.16;99834.31;8390595;28;20450;-72
2022/06/15 02:14:30;;;;;;;9.55;2.05;;;;;;;8.19;77.26;99844.03;8389820;28;20041;-72
2022/06/15 02:18:32;;;;;;;5.50;1.92;;;;;;;8.20;77.30;99835.66;8362893;28;20419;-72
2022/06/15 02:22:36;;;;;;;6.07;2.30;;;;;;;8.14;77.50;99828.72;8367978;28;20064;-72
2022/06/15 02:26:38;;;;;;;8.18;2.00;;;;;;;8.16;77.79;99836.50;8355107;28;20135;-71
2022/06/15 02:30:40;;;;;;;7.47;2.50;;;;;;;8.15;77.82;99827.63;8380814;28;20095;-71
2022/06/15 02:34:41;;;;;;;6.55;2.30;;;;;;;8.14;77.66;99819.84;8435431;28;20040;-72
2022/06/15 02:38:44;;;;;;;3.83;2.20;;;;;;;8.09;77.88;99833.31;8452579;28;20048;-72
2022/06/15 02:42:46;;;;;;;9.32;2.30;;;;;;;8.03;77.99;99836.03;8427902;28;20490;-72
2022/06/15 02:46:48;;;;;;;4.82;1.88;;;;;;;7.99;78.11;99832.25;8462217;28;20040;-72
2022/06/15 02:50:53;;;;;;;7.15;2.17;;;;;;;8.01;78.50;99843.53;8462075;28;20044;-72
2022/06/15 02:54:55;;;;;;;6.80;2.30;;;;;;;7.99;78.73;99848.38;8470568;27;20568;-72
2022/06/15 02:58:57;;;;;;;5.78;2.20;;;;;;;7.99;78.51;99851.06;8449239;28;20036;-72
2022/06/15 03:02:58;;;;;;;11.48;2.28;;;;;;;7.98;78.48;99844.06;8434325;28;20032;-72
2022/06/15 03:06:59;;;;;;;5.03;2.40;;;;;;;7.98;78.50;99846.75;8436268;28;20040;-72
2022/06/15 03:11:00;;;;;;;7.75;2.60;;;;;;;7.97;78.74;99842.50;8450499;28;20063;-72
2022/06/15 03:15:01;;;;;;;4.72;2.45;;;;;;;8.02;78.53;99850.53;8444371;28;20142;-71
2022/06/15 03:19:02;;;;;;;5.13;2.20;;;;;;;8.06;78.85;99840.03;8436757;28;20058;-72
2022/06/15 03:23:06;;;;;;;6.97;2.28;;;;;;;8.08;79.01;99840.56;8444824;28;20055;-72
2022/06/15 03:27:07;;;;;;;5.20;2.10;;;;;;;8.10;78.90;99841.09;8474651;27;20051;-72
2022/06/15 03:31:08;;;;;;;7.15;2.58;;;;;;;8.12;78.98;99848.88;8520796;27;20046;-72
2022/06/15 03:35:10;;;;;;;5.22;2.50;;;;;;;8.15;79.27;99848.31;8528214;27;20567;-72
2022/06/15 03:39:11;;;;;;;6.72;2.50;;;;;;;8.21;78.75;99852.63;8517110;27;20050;-72
2022/06/15 03:43:13;;;;;;;6.07;2.33;;;;;;;8.25;78.82;99849.09;8530738;27;20066;-72
2022/06/15 03:47:17;;;;;;;5.78;2.33;;;;;;;8.31;79.23;99852.59;8510381;27;20445;-72
2022/06/15 03:51:18;;;;;;;10.00;2.25;;;;;;;8.41;79.27;99847.19;8517548;27;20047;-72
2022/06/15 03:55:20;;;;;;;7.68;2.45;;;;;;;8.58;79.15;99853.03;8503981;27;20055;-72
2022/06/15 03:59:22;;;;;;;5.95;2.10;;;;;;;8.75;78.48;99850.78;8534146;27;20047;-72
2022/06/15 04:03:22;;;;;;;6.72;2.63;;;;;;;8.92;78.59;99852.31;8511724;27;20042;-72
2022/06/15 04:16:05;;;;;;;8.93;2.33;;;;;;;9.47;77.26;99854.56;8508769;27;20051;-72
2022/06/15 04:24:28;;;;;;;8.10;2.95;;;;;;;9.92;77.37;99860.63;8505528;27;20046;-72
2022/06/15 04:28:31;;;;;;;8.73;2.70;;;;;;;10.12;77.19;99855.00;8528015;27;20137;-72
2022/06/15 04:32:32;;;;;;;5.40;2.70;;;;;;;10.32;77.12;99865.56;8491168;27;20042;-72
2022/06/15 04:36:34;;;;;;;8.00;2.85;;;;;;;10.51;77.36;99855.63;8531264;27;20121;-73
2022/06/15 04:40:36;;;;;;;9.65;2.83;;;;;;;10.70;77.24;99849.44;8529274;27;20042;-72
2022/06/15 04:44:37;;;;;;;7.55;2.83;;;;;;;10.83;77.85;99859.53;8529670;27;20102;-72
2022/06/15 04:48:38;;;;;;;10.55;2.88;;;;;;;11.01;77.69;99872.22;8531153;27;20090;-73
2022/06/15 04:52:42;;;;;;;16.23;3.17;;;;;;;11.22;78.34;99868.13;8529871;27;20093;-73
2022/06/15 04:56:43;;;;;;;9.57;2.75;;;;;;;11.37;76.97;99859.75;8531072;27;20039;-72
2022/06/15 05:00:46;;;;;;;9.77;2.65;;;;;;;11.52;76.06;99860.63;8510015;27;20049;-72
2022/06/15 05:04:47;;;;;;;10.70;2.50;;;;;;;11.64;75.35;99863.66;8503605;27;20096;-72
2022/06/15 05:08:49;;;;;;;11.23;2.30;;;;;;;11.78;75.15;99859.13;8462915;27;20051;-72
2022/06/15 05:12:53;;;;;;;11.93;2.47;;;;;;;11.91;74.56;99869.16;8448611;27;20122;-73
2022/06/15 05:16:53;;;;;;;6.85;2.20;;;;;;;12.04;73.91;99868.38;8524377;27;20043;-72
2022/06/15 05:20:54;;;;;;;14.23;2.70;;;;;;;12.21;73.06;99857.72;8521107;27;20045;-72
2022/06/15 05:24:55;;;;;;;13.48;2.85;;;;;;;12.34;72.49;99860.75;8514887;27;20058;-72
2022/06/15 05:28:56;;;;;;;9.90;1.98;;;;;;;12.45;71.94;99862.94;8476744;27;20091;-73
2022/06/15 05:32:58;;;;;;;10.77;1.85;;;;;;;12.52;71.35;99857.94;8531207;27;20066;-72
2022/06/15 05:36:59;;;;;;;10.02;2.42;;;;;;;12.63;70.64;99869.38;8511822;27;20458;-72
2022/06/15 05:41:00;;;;;;;5.43;1.48;;;;;;;12.73;69.89;99863.72;8498330;27;20055;-72
2022/06/15 05:45:02;;;;;;;10.45;1.77;;;;;;;12.82;69.53;99867.31;8505753;27;20142;-72
2022/06/15 05:49:03;;;;;;;7.88;1.80;;;;;;;12.93;68.78;99867.88;8476135;27;20158;-72
2022/06/15 05:53:05;;;;;;;8.65;1.90;;;;;;;13.08;67.68;99865.63;8525052;27;20058;-72
2022/06/15 05:57:23;;;;;;;9.18;1.90;;;;;;;13.21;67.32;99868.63;8515664;27;20046;-72
2022/06/15 06:01:36;;;;;;;11.50;1.85;;;;;;;13.31;66.74;99862.97;8512509;27;20335;-73
2022/06/15 06:05:37;;;;;;;11.07;1.70;;;;;;;13.42;65.87;99859.72;8520866;27;20497;-72
2022/06/15 06:09:39;;;;;;;9.15;1.50;;;;;;;13.55;65.13;99868.88;8517450;27;20042;-72
2022/06/15 06:13:40;;;;;;;6.75;1.80;;;;;;;13.75;63.19;99859.41;8422887;28;20051;-72
2022/06/15 06:17:41;;;;;;;7.55;1.55;;;;;;;13.87;62.37;99865.88;8390603;28;20604;-72
2022/06/15 06:21:45;;;;;;;8.52;1.75;;;;;;;13.99;62.36;99857.13;8422198;28;20048;-72
2022/06/15 06:25:50;;;;;;;9.65;1.48;;;;;;;14.07;62.35;99859.09;8405791;28;20085;-72
2022/06/15 06:29:51;;;;;;;8.30;2.17;;;;;;;14.12;61.80;99860.84;8403472;28;20635;-72
2022/06/15 06:33:53;;;;;;;6.25;1.30;;;;;;;14.22;61.35;99861.38;8422601;28;20478;-73
2022/06/15 06:37:55;;;;;;;10.52;1.80;;;;;;;14.33;61.05;99867.31;8404574;28;20075;-72
2022/06/15 06:41:57;;;;;;;6.38;1.20;;;;;;;14.46;60.96;99861.00;8421554;28;20055;-72
2022/06/15 06:45:58;;;;;;;7.78;1.80;;;;;;;14.60;61.24;99872.56;8423372;28;20139;-72
2022/06/15 06:49:59;;;;;;;4.70;1.50;;;;;;;14.71;60.47;99868.41;8429035;27;20058;-72
2022/06/15 06:54:00;;;;;;;8.63;1.35;;;;;;;14.80;59.74;99860.28;8472006;27;20066;-72
2022/06/15 06:58:02;;;;;;;9.75;1.77;;;;;;;14.89;58.37;99863.00;8519452;27;20042;-72
2022/06/15 07:02:03;;;;;;;7.50;1.60;;;;;;;14.96;58.92;99868.78;8477667;27;20051;-73
2022/06/15 07:06:07;;;;;;;9.70;1.42;;;;;;;15.12;57.35;99859.03;8453510;28;20086;-72
2022/06/15 07:10:08;;;;;;;9.25;1.80;;;;;;;15.21;58.06;99859.81;8416988;28;20048;-72
2022/06/15 07:14:09;;;;;;;7.15;1.48;;;;;;;15.28;58.74;99865.56;8450314;28;20290;-73
2022/06/15 07:18:10;;;;;;;4.63;1.40;;;;;;;15.41;58.45;99856.44;8456905;28;20470;-72
2022/06/15 07:22:11;;;;;;;8.27;1.77;;;;;;;15.58;58.52;99848.28;8452401;28;20059;-73
2022/06/15 07:26:15;;;;;;;10.38;1.88;;;;;;;15.68;58.43;99851.78;8453448;28;20051;-72
2022/06/15 07:30:23;;;;;;;12.50;2.05;;;;;;;15.77;57.96;99858.00;8455090;28;20066;-72
2022/06/15 07:34:27;;;;;;;4.88;1.45;;;;;;;15.94;57.89;99855.22;8417448;28;20048;-72
2022/06/15 07:38:28;;;;;;;8.02;1.63;;;;;;;16.05;58.34;99861.91;8458154;28;20098;-73
2022/06/15 07:42:29;;;;;;;8.57;1.75;;;;;;;16.19;57.47;99865.22;8484369;27;20553;-73
2022/06/15 07:46:30;;;;;;;11.35;2.00;;;;;;;16.29;57.43;99855.88;8483485;27;20492;-72
2022/06/15 07:50:32;;;;;;;6.22;2.05;;;;;;;16.47;55.66;99857.38;8534527;27;20073;-73
2022/06/15 07:54:33;;;;;;;5.78;1.77;;;;;;;16.58;55.59;99863.25;8534484;27;20056;-73
2022/06/15 07:58:34;;;;;;;6.13;1.48;;;;;;;16.63;55.91;99865.81;8534378;27;20054;-73
2022/06/15 08:02:35;;;;;;;6.10;1.88;;;;;;;16.74;56.64;99851.47;8533987;27;20035;-73
2022/06/15 08:06:37;;;;;;;5.68;1.65;;;;;;;16.97;54.67;99854.69;8523629;27;20512;-73
2022/06/15 08:10:38;;;;;;;8.15;2.05;;;;;;;17.10;54.51;99853.63;8461959;27;20057;-72
2022/06/15 08:14:43;;;;;;;7.07;2.22;;;;;;;17.24;53.07;99854.13;8513326;27;20508;-72
2022/06/15 08:18:53;;;;;;;4.90;1.45;;;;;;;17.28;51.18;99844.16;8513989;27;20509;-73
2022/06/15 08:22:56;;;;;;;4.65;1.60;;;;;;;17.46;52.26;99843.97;8460242;27;20129;-73
2022/06/15 08:26:57;;;;;;;6.18;1.60;;;;;;;17.55;50.52;99841.97;8416853;28;20521;-73
2022/06/15 08:30:59;;;;;;;12.38;2.47;;;;;;;17.70;51.56;99839.44;8412725;28;20049;-72
2022/06/15 08:35:00;;;;;;;5.40;1.50;;;;;;;17.90;50.85;99848.69;8421405;28;20046;-73
2022/06/15 08:39:01;;;;;;;7.18;1.50;;;;;;;18.06;50.36;99846.09;8403863;28;20387;-72
2022/06/15 08:43:57;;;;;;;5.88;1.50;;;;;;;18.14;49.30;99848.69;8409591;28;20060;-73
2022/06/15 08:48:30;;;;;;;5.90;1.33;;;;;;;18.34;47.12;99840.75;8224775;28;20042;-72
2022/06/15 08:52:34;;;;;;;6.65;1.65;;;;;;;18.54;48.34;99845.31;8165988;29;20375;-72
2022/06/15 08:56:43;;;;;;;6.05;1.48;;;;;;;18.78;49.41;99850.75;8165885;29;20067;-73
2022/06/15 09:00:45;;;;;;;7.35;1.60;;;;;;;18.93;49.22;99841.00;8166090;29;20442;-73
2022/06/15 09:05:07;;;;;;;9.77;1.40;;;;;;;19.11;48.17;99836.06;8152239;28;20137;-72
2022/06/15 09:09:11;;;;;;;4.78;1.55;;;;;;;19.25;49.48;99837.25;8226689;28;20792;-73
2022/06/15 09:13:40;;;;;;;4.95;1.45;;;;;;;19.39;48.54;99836.88;8212926;28;20434;-72
2022/06/15 09:17:42;;;;;;;3.63;1.33;;;;;;;19.22;45.96;99842.66;8215448;28;20146;-72
2022/06/15 09:21:57;;;;;;;4.60;1.23;;;;;;;19.32;46.35;99831.19;8220909;28;20434;-73
2022/06/15 09:26:04;;;;;;;4.60;1.33;;;;;;;19.42;45.11;99825.19;8234318;28;20048;-74
2022/06/15 09:30:15;;;;;;;7.20;1.60;;;;;;;19.48;45.35;99834.78;8452154;27;20173;-73
2022/06/15 09:34:20;;;;;;;4.70;1.42;;;;;;;19.68;47.05;99822.81;8458428;27;20065;-74
2022/06/15 09:38:21;;;;;;;5.05;1.50;;;;;;;19.77;43.96;99826.16;8482316;27;20100;-73
2022/06/15 09:42:43;;;;;;;3.95;1.20;;;;;;;19.69;44.61;99827.16;8496368;27;20097;-74
2022/06/15 09:46:50;;;;;;;7.03;1.77;;;;;;;19.94;44.00;99824.22;8492067;27;20072;-73
2022/06/15 09:51:01;;;;;;;5.75;1.65;;;;;;;19.98;43.92;99830.63;8476474;27;20040;-73
2022/06/15 09:55:01;;;;;;;5.65;1.40;;;;;;;20.00;44.39;99822.81;8488812;27;20043;-73
2022/06/15 09:59:07;;;;;;;10.82;2.53;;;;;;;20.24;45.89;99817.16;8481217;27;20126;-72
2022/06/15 10:03:29;;;;;;;10.00;2.95;;;;;;;20.47;46.37;99820.88;8435658;28;20050;-73
2022/06/15 10:07:35;;;;;;;6.50;2.30;;;;;;;20.60;45.31;99814.13;8421817;28;20525;-73
2022/06/15 10:11:40;;;;;;;5.07;1.50;;;;;;;20.72;44.92;99815.16;8381031;28;20044;-73
2022/06/15 10:15:42;;;;;;;8.77;1.90;;;;;;;20.67;43.88;99807.19;8418453;28;20040;-73
2022/06/15 10:19:45;;;;;;;5.68;1.40;;;;;;;20.78;44.78;99813.72;8410510;28;20129;-73
2022/06/15 10:23:47;;;;;;;10.40;1.70;;;;;;;20.94;44.83;99800.69;8407058;28;20052;-73
2022/06/15 10:27:48;;;;;;;6.13;1.45;;;;;;;21.18;44.93;99805.94;8394030;28;20087;-73
2022/06/15 10:32:00;;;;;;;4.60;1.38;;;;;;;21.26;43.57;99802.16;8323889;28;20064;-73
2022/06/15 10:36:01;;;;;;;6.05;1.48;;;;;;;21.44;42.92;99806.06;8390748;28;20468;-73
2022/06/15 10:40:16;;;;;;;4.70;1.50;;;;;;;21.43;44.30;99806.41;8459858;28;20088;-73
2022/06/15 10:44:33;;;;;;;4.05;1.65;;;;;;;21.41;44.32;99804.03;8441734;28;20043;-73
2022/06/15 10:48:44;;;;;;;5.38;1.42;;;;;;;21.49;42.30;99805.75;8447384;28;20052;-73
2022/06/15 10:52:48;;;;;;;8.52;1.60;;;;;;;21.43;41.57;99796.22;8461027;28;20051;-73
2022/06/15 11:05:39;;;;;;;2.10;1.30;;;;;;;21.97;43.26;99792.50;8446740;28;20055;-73
2022/06/15 11:09:44;;;;;;;4.50;1.30;;;;;;;22.07;41.58;99786.38;8423562;28;20076;-73
2022/06/15 11:14:07;;;;;;;6.05;1.40;;;;;;;22.20;42.16;99790.53;8460439;28;20485;-73
2022/06/15 11:18:20;;;;;;;5.15;1.42;;;;;;;22.26;42.10;99783.50;8435747;28;20040;-73
2022/06/15 11:22:23;;;;;;;5.63;1.50;;;;;;;22.25;40.40;99792.94;8442473;28;20472;-73
2022/06/15 11:31:02;;;;;;;6.40;1.67;;;;;;;22.43;40.75;99781.38;8520413;27;20043;-73
2022/06/15 11:35:12;;;;;;;3.38;1.30;;;;;;;22.55;41.29;99789.44;8510327;27;20386;-73
2022/06/15 11:39:17;;;;;;;4.72;1.10;;;;;;;22.67;41.39;99775.47;8515072;27;20131;-73
2022/06/15 11:43:22;;;;;;;4.20;1.40;;;;;;;22.77;41.29;99779.53;8533726;27;20039;-73
2022/06/15 11:47:33;;;;;;;4.63;1.52;;;;;;;22.87;39.64;99778.88;8515994;27;20047;-74
2022/06/15 11:51:46;;;;;;;7.13;1.40;;;;;;;22.96;39.42;99771.91;8532500;27;20206;-74
2022/06/15 11:55:58;;;;;;;3.28;1.02;;;;;;;22.96;38.65;99777.41;8519495;27;20046;-73
2022/06/15 12:00:20;;;;;;;4.22;1.50;;;;;;;22.88;37.08;99775.75;8519863;27;20103;-73
2022/06/15 12:04:42;;;;;;;4.47;1.42;;;;;;;22.81;37.98;99769.34;8505429;27;20046;-73
2022/06/15 12:09:03;;;;;;;3.92;1.20;;;;;;;23.06;38.04;99765.72;8517516;27;20505;-73
2022/06/15 12:13:41;;;;;;;5.45;1.40;;;;;;;23.39;38.55;99766.88;8495504;27;20096;-73
2022/06/15 12:18:24;;;;;;;7.43;1.05;;;;;;;23.73;38.16;99770.41;8530767;27;20411;-73
2022/06/15 12:22:55;;;;;;;4.68;1.20;;;;;;;23.55;35.12;99764.72;8356444;28;20052;-72
2022/06/15 12:27:10;;;;;;;4.18;1.35;;;;;;;23.43;36.40;99748.41;8421310;28;20048;-73
2022/06/15 12:31:17;;;;;;;4.25;1.40;;;;;;;23.45;35.96;99748.81;8420421;28;20052;-72
2022/06/15 12:35:21;;;;;;;4.78;1.50;;;;;;;23.73;37.12;99740.84;8414463;28;20434;-73
2022/06/15 12:39:32;;;;;;;2.75;1.23;;;;;;;23.41;34.32;99736.97;8425376;28;20296;-73
2022/06/15 12:43:44;;;;;;;3.53;1.10;;;;;;;23.71;37.17;99740.44;8395145;28;20053;-73
2022/06/15 12:47:51;;;;;;;3.13;1.23;;;;;;;23.95;36.30;99742.59;8389914;28;20048;-73
2022/06/15 12:52:13;;;;;;;3.92;1.15;;;;;;;24.02;34.47;99741.06;8398215;28;20036;-72
2022/06/15 12:56:27;;;;;;;7.35;1.20;;;;;;;24.08;36.67;99736.78;8418144;27;20100;-73
2022/06/15 13:00:52;;;;;;;6.13;1.27;;;;;;;24.11;35.68;99741.53;8522645;27;20051;-73
2022/06/15 13:05:03;;;;;;;5.60;1.75;;;;;;;24.36;37.76;99731.47;8344529;28;20037;-73
2022/06/15 13:09:18;;;;;;;4.82;1.40;;;;;;;24.55;37.14;99728.41;8339989;28;20514;-73
2022/06/15 13:14:09;;;;;;;2.83;1.25;;;;;;;24.41;34.45;99733.88;8354809;28;20057;-72
2022/06/15 13:18:12;;;;;;;5.32;1.40;;;;;;;24.31;33.50;99718.84;8277476;28;20043;-73
2022/06/15 13:22:23;;;;;;;5.47;1.30;;;;;;;24.32;34.35;99719.63;8264778;28;20054;-73
2022/06/15 13:26:26;;;;;;;5.22;1.48;;;;;;;24.36;34.67;99717.66;8259052;28;20050;-73
2022/06/15 13:30:32;;;;;;;6.13;1.40;;;;;;;24.52;34.18;99709.06;8266985;28;20050;-73
2022/06/15 13:34:33;;;;;;;4.47;1.27;;;;;;;24.83;34.74;99714.72;8280086;28;20042;-73
2022/06/15 13:38:35;;;;;;;5.53;1.30;;;;;;;26.13;31.71;99715.28;8281028;28;20054;-73
2022/06/15 13:42:41;;;;;;;4.20;1.35;;;;;;;27.18;28.98;99705.00;8395627;28;20041;-73
2022/06/15 13:46:44;;;;;;;5.68;1.80;;;;;;;28.71;28.46;99706.41;8432560;27;20515;-73
2022/06/15 13:50:51;;;;;;;6.75;1.45;;;;;;;29.56;26.74;99710.78;8527138;27;20524;-73
2022/06/15 13:55:10;;;;;;;6.75;1.45;;;;;;;29.84;27.55;99696.41;8525346;27;20184;-73
2022/06/15 14:00:03;;;;;;;8.18;1.60;;;;;;;30.33;29.29;99686.38;8524105;27;20103;-73
2022/06/15 14:04:23;;;;;;;4.38;1.40;;;;;;;30.93;26.50;99695.53;8414712;28;20537;-73
2022/06/15 14:08:55;;;;;;;6.15;1.73;;;;;;;30.68;26.10;99684.09;8421068;28;20040;-73
2022/06/15 14:13:06;;;;;;;6.18;1.35;;;;;;;29.92;28.21;99677.63;8281227;28;20045;-73
2022/06/15 14:17:26;;;;;;;3.05;1.20;;;;;;;29.87;28.96;99680.88;8290105;28;20677;-74
2022/06/15 14:21:31;;;;;;;5.00;1.45;;;;;;;30.60;26.88;99667.53;8287606;28;20053;-73
2022/06/15 14:25:58;;;;;;;5.40;1.20;;;;;;;31.14;26.50;99672.75;8287370;28;20488;-72
2022/06/15 14:30:01;;;;;;;3.33;1.30;;;;;;;32.07;25.77;99672.00;8200050;28;20055;-73
2022/06/15 14:34:15;;;;;;;4.15;1.40;;;;;;;32.85;25.24;99664.22;8193543;28;20066;-74
2022/06/15 14:38:22;;;;;;;7.43;1.45;;;;;;;34.26;24.01;99663.59;8223323;28;20527;-74
2022/06/15 14:42:27;;;;;;;4.93;1.58;;;;;;;34.80;21.15;99667.97;8290609;28;20088;-74
2022/06/15 14:46:45;;;;;;;6.22;1.45;;;;;;;34.27;22.99;99665.13;8307544;28;20496;-74
2022/06/15 14:50:47;;;;;;;5.55;1.17;;;;;;;34.12;24.08;99658.44;8393282;28;20128;-73
2022/06/15 14:54:58;;;;;;;2.10;1.15;;;;;;;34.74;23.30;99654.53;8392883;28;20063;-74
2022/06/15 14:59:01;;;;;;;9.38;1.40;;;;;;;35.51;22.45;99655.50;8376627;28;20484;-72
2022/06/15 15:03:03;;;;;;;3.58;1.30;;;;;;;36.22;22.07;99652.44;8382306;28;20044;-71
2022/06/15 15:11:54;;;;;;;7.18;1.20;;;;;;;34.46;23.04;99644.41;8390904;28;20047;-71
2022/06/15 15:16:01;;;;;;;3.20;1.15;;;;;;;33.47;24.27;99637.44;8394506;28;20092;-71
2022/06/15 15:20:30;;;;;;;4.57;1.58;;;;;;;32.39;24.29;99636.81;8385524;28;20702;-71
2022/06/15 15:24:44;;;;;;;5.20;1.52;;;;;;;32.07;23.35;99627.31;8396713;28;20143;-71
2022/06/15 15:37:41;;;;;;;11.93;1.67;;;;;;;32.22;24.81;99617.31;8366263;28;20056;-72
2022/06/15 15:41:42;;;;;;;6.40;1.48;;;;;;;31.99;24.88;99614.75;8363221;28;20049;-72
2022/06/15 15:45:43;;;;;;;7.80;1.70;;;;;;;30.76;26.10;99613.03;8378921;28;20372;-70
2022/06/15 15:49:44;;;;;;;11.27;1.58;;;;;;;29.86;27.15;99604.13;8435356;28;20698;-71
2022/06/15 15:53:46;;;;;;;5.38;1.35;;;;;;;29.55;27.84;99604.28;8446664;28;20040;-71
2022/06/15 15:57:49;;;;;;;4.05;1.40;;;;;;;28.69;29.08;99609.56;8436023;28;20039;-72
2022/06/15 16:01:50;;;;;;;7.10;1.55;;;;;;;27.98;30.35;99599.31;8452191;28;20039;-71
2022/06/15 16:05:51;;;;;;;5.28;1.20;;;;;;;27.56;30.48;99599.75;8443196;28;20134;-73
2022/06/15 16:09:55;;;;;;;5.47;1.60;;;;;;;27.55;30.70;99592.63;8454391;28;20409;-72
2022/06/15 16:13:56;;;;;;;9.90;1.67;;;;;;;27.09;31.66;99593.78;8453012;28;20075;-74
2022/06/15 16:17:57;;;;;;;6.63;2.75;;;;;;;27.36;31.10;99590.41;8446602;27;20445;-72
2022/06/15 16:22:02;;;;;;;11.35;4.53;;;;;;;27.69;30.67;99586.94;8446601;28;20044;-71
2022/06/15 16:26:04;;;;;;;13.85;6.03;;;;;;;26.90;31.76;99580.47;8446857;27;20044;-72
2022/06/15 16:30:06;;;;;;;9.02;3.47;;;;;;;27.46;31.65;99578.41;8503073;27;20079;-73
2022/06/15 16:34:08;;;;;;;6.03;1.98;;;;;;;28.02;30.33;99571.53;8478773;27;20404;-71
2022/06/15 16:38:11;;;;;;;4.68;1.38;;;;;;;27.63;31.01;99571.94;8515905;27;20062;-72
2022/06/15 16:42:12;;;;;;;12.70;1.65;;;;;;;28.63;29.96;99572.31;8524800;27;20059;-73
2022/06/15 16:46:17;;;;;;;3.88;1.45;;;;;;;30.25;27.77;99567.91;8521934;27;20050;-73
2022/06/15 16:50:19;;;;;;;4.60;1.90;;;;;;;31.91;25.36;99574.28;8506301;27;20043;-73
2022/06/15 16:54:20;;;;;;;5.80;1.73;;;;;;;33.08;24.36;99571.56;8509553;27;20176;-73
2022/06/15 16:58:21;;;;;;;10.48;1.98;;;;;;;30.90;26.70;99565.28;8509955;27;20099;-73
2022/06/15 17:02:22;;;;;;;5.90;1.98;;;;;;;28.18;30.10;99562.63;8499374;27;20043;-73
2022/06/15 17:06:23;;;;;;;12.60;1.60;;;;;;;27.14;32.04;99557.31;8463723;27;20050;-73
2022/06/15 17:10:24;;;;;;;5.93;2.13;;;;;;;26.21;33.35;99556.28;8454810;27;20064;-72
2022/06/15 17:14:26;;;;;;;5.70;1.80;;;;;;;25.61;34.35;99562.81;8512994;27;20397;-74
2022/06/15 17:18:28;;;;;;;13.98;5.07;;;;;;;25.13;35.30;99553.34;8491916;27;20072;-73
2022/06/15 17:22:29;;;;;;;8.43;2.80;;;;;;;24.81;35.66;99545.81;8507760;27;20051;-73
2022/06/15 17:26:34;;;;;;;5.03;2.25;;;;;;;24.44;35.89;99550.88;8477060;27;20149;-73
2022/06/15 17:30:35;;;;;;;10.43;4.97;;;;;;;24.23;36.71;99550.81;8488494;27;20043;-73
2022/06/15 17:34:38;;;;;;;15.20;5.20;;;;;;;24.13;37.06;99546.00;8506403;27;20066;-73
2022/06/15 17:38:39;;;;;;;6.88;4.00;;;;;;;24.00;37.87;99543.59;8505746;27;20227;-73
2022/06/15 17:42:41;;;;;;;7.88;1.90;;;;;;;23.56;38.72;99551.25;8512645;27;20104;-73
2022/06/15 17:46:43;;;;;;;5.88;1.70;;;;;;;23.34;39.14;99549.50;8492792;27;20042;-72
2022/06/15 17:50:44;;;;;;;3.85;1.63;;;;;;;23.29;39.57;99547.91;8498476;27;20051;-73
2022/06/15 17:54:45;;;;;;;5.20;2.65;;;;;;;23.24;39.64;99544.72;8525128;27;20055;-73
2022/06/15 17:58:46;;;;;;;5.18;1.58;;;;;;;22.97;40.50;99547.66;8500198;27;20208;-73
2022/06/15 18:02:47;;;;;;;6.13;2.00;;;;;;;22.84;41.07;99542.81;8490261;27;20157;-72
2022/06/15 18:06:48;;;;;;;4.47;1.65;;;;;;;22.78;41.70;99536.88;8458417;27;20068;-72
2022/06/15 18:10:49;;;;;;;4.65;1.80;;;;;;;22.70;41.86;99526.91;8508181;27;20053;-72
2022/06/15 18:14:50;;;;;;;9.48;2.70;;;;;;;22.61;42.01;99534.69;8514379;27;20066;-72
2022/06/15 18:18:54;;;;;;;4.30;1.85;;;;;;;22.45;42.72;99531.38;8491829;27;20051;-72
2022/06/15 18:22:55;;;;;;;8.68;1.90;;;;;;;22.30;43.07;99520.25;8464139;27;20145;-73
2022/06/15 18:26:57;;;;;;;8.80;2.33;;;;;;;22.20;43.57;99531.91;8511688;27;20250;-73
2022/06/15 18:30:57;;;;;;;8.07;2.08;;;;;;;22.08;44.04;99523.13;8505791;27;20579;-73
2022/06/15 18:34:58;;;;;;;7.50;2.10;;;;;;;21.97;44.09;99523.00;8497766;27;20050;-72
2022/06/15 18:38:59;;;;;;;5.07;1.73;;;;;;;21.84;44.31;99536.16;8459729;27;20086;-73
2022/06/15 18:43:01;;;;;;;8.02;2.40;;;;;;;21.67;44.93;99530.44;8512983;27;20053;-72
2022/06/15 18:51:23;;;;;;;6.35;1.80;;;;;;;21.29;45.86;99532.25;8503246;27;20058;-72
2022/06/15 18:55:31;;;;;;;6.63;2.03;;;;;;;21.12;46.24;99526.44;8508321;27;20085;-72
2022/06/15 18:59:32;;;;;;;12.57;2.80;;;;;;;20.99;46.44;99534.09;8507073;27;20055;-72
2022/06/15 19:03:33;;;;;;;9.93;3.22;;;;;;;20.77;46.71;99532.16;8512568;27;20088;-72
2022/06/15 19:07:34;;;;;;;12.45;3.55;;;;;;;20.62;47.02;99531.13;8507545;27;20122;-72
2022/06/15 19:11:35;;;;;;;9.80;3.75;;;;;;;20.48;47.42;99531.63;8503520;27;20138;-73
2022/06/15 19:15:37;;;;;;;6.32;1.85;;;;;;;20.33;47.44;99529.78;8512605;27;20046;-73
2022/06/15 19:19:40;;;;;;;8.70;1.52;;;;;;;20.21;47.38;99538.13;8405689;28;20127;-73
2022/06/15 19:23:42;;;;;;;4.97;1.70;;;;;;;20.15;47.34;99547.81;8358784;28;20506;-73
2022/06/15 19:27:44;;;;;;;4.60;1.55;;;;;;;20.07;47.54;99537.88;8399437;28;20131;-72
2022/06/15 19:31:47;;;;;;;4.38;1.55;;;;;;;19.93;47.98;99548.56;8406795;28;20036;-73
2022/06/15 19:35:48;;;;;;;8.80;1.70;;;;;;;19.84;48.09;99546.00;8400474;28;20040;-72
2022/06/15 19:39:49;;;;;;;2.80;1.60;;;;;;;19.72;48.26;99544.19;8412957;28;20085;-72
2022/06/15 19:43:52;;;;;;;5.60;1.90;;;;;;;19.64;48.64;99542.44;8406179;28;20036;-73
2022/06/15 19:47:53;;;;;;;7.35;2.28;;;;;;;19.56;48.57;99543.47;8402390;28;20483;-72
2022/06/15 19:51:57;;;;;;;5.38;2.83;;;;;;;19.45;48.79;99550.63;8412259;28;20078;-72
2022/06/15 19:55:58;;;;;;;4.25;2.10;;;;;;;19.35;49.07;99556.63;8445628;27;20092;-72
2022/06/15 19:59:59;;;;;;;6.50;1.55;;;;;;;19.26;49.38;99547.81;8512807;27;20051;-72
2022/06/15 20:04:00;;;;;;;4.70;1.70;;;;;;;19.18;49.28;99546.84;8513236;27;20114;-73